sensor_id;sensor_type;location;lat;lon;timestamp;P1;durP1;ratioP1;P2;durP2;ratioP2
23242;SDS011;11790;49.578;11.214;2023-07-31T00:04:28;5.60;;;2.13;;
23242;SDS011;11790;49.578;11.214;2023-07-31T00:09:28;5.05;;;2.40;;
23242;SDS011;11790;49.578;11.214;2023-07-31T00:14:28;5.03;;;2.17;;
23242;SDS011;11790;49.578;11.214;2023-07-31T00:19:28;5.68;;;2.13;;
23242;SDS011;11790;49.578;11.214;2023-07-31T00:24:28;4.50;;;1.98;;
23242;SDS011;11790;49.578;11.214;2023-07-31T00:29:29;4.15;;;2.20;;
23242;SDS011;11790;49.578;11.214;2023-07-31T00:34:29;10.23;;;2.55;;
23242;SDS011;11790;49.578;11.214;2023-07-31T00:39:30;5.30;;;2.17;;
23242;SDS011;11790;49.578;11.214;2023-07-31T00:44:30;3.35;;;1.90;;
23242;SDS011;11790;49.578;11.214;2023-07-31T00:49:31;7.70;;;2.28;;
23242;SDS011;11790;49.578;11.214;2023-07-31T00:54:31;5.78;;;2.25;;
23242;SDS011;11790;49.578;11.214;2023-07-31T00:59:31;4.40;;;1.98;;
23242;SDS011;11790;49.578;11.214;2023-07-31T01:04:31;5.00;;;2.08;;
23242;SDS011;11790;49.578;11.214;2023-07-31T01:14:38;5.97;;;2.22;;
23242;SDS011;11790;49.578;11.214;2023-07-31T01:19:38;4.28;;;2.10;;
23242;SDS011;11790;49.578;11.214;2023-07-31T01:24:46;6.57;;;2.30;;
23242;SDS011;11790;49.578;11.214;2023-07-31T01:30:03;5.97;;;2.35;;
23242;SDS011;11790;49.578;11.214;2023-07-31T01:35:10;7.60;;;2.20;;
23242;SDS011;11790;49.578;11.214;2023-07-31T01:40:10;5.85;;;2.05;;
23242;SDS011;11790;49.578;11.214;2023-07-31T01:45:11;5.97;;;2.20;;
23242;SDS011;11790;49.578;11.214;2023-07-31T01:50:11;6.00;;;2.13;;
23242;SDS011;11790;49.578;11.214;2023-07-31T01:55:11;6.45;;;2.13;;
23242;SDS011;11790;49.578;11.214;2023-07-31T02:00:12;4.20;;;2.05;;
23242;SDS011;11790;49.578;11.214;2023-07-31T02:05:12;5.63;;;1.97;;
23242;SDS011;11790;49.578;11.214;2023-07-31T02:10:12;5.43;;;2.13;;
23242;SDS011;11790;49.578;11.214;2023-07-31T02:15:12;4.70;;;2.03;;
23242;SDS011;11790;49.578;11.214;2023-07-31T02:20:12;4.03;;;1.90;;
23242;SDS011;11790;49.578;11.214;2023-07-31T02:25:13;2.97;;;2.20;;
23242;SDS011;11790;49.578;11.214;2023-07-31T02:30:13;4.03;;;2.25;;
23242;SDS011;11790;49.578;11.214;2023-07-31T02:35:13;5.95;;;1.95;;
23242;SDS011;11790;49.578;11.214;2023-07-31T02:40:15;6.00;;;2.22;;
23242;SDS011;11790;49.578;11.214;2023-07-31T02:45:15;6.28;;;1.88;;
23242;SDS011;11790;49.578;11.214;2023-07-31T02:50:15;4.50;;;1.90;;
23242;SDS011;11790;49.578;11.214;2023-07-31T02:55:16;3.88;;;1.70;;
23242;SDS011;11790;49.578;11.214;2023-07-31T03:00:16;3.07;;;1.60;;
23242;SDS011;11790;49.578;11.214;2023-07-31T03:05:16;6.88;;;2.63;;
23242;SDS011;11790;49.578;11.214;2023-07-31T03:10:16;4.53;;;1.83;;
23242;SDS011;11790;49.578;11.214;2023-07-31T03:15:17;5.03;;;1.98;;
23242;SDS011;11790;49.578;11.214;2023-07-31T03:20:17;7.25;;;2.17;;
23242;SDS011;11790;49.578;11.214;2023-07-31T03:25:17;6.07;;;1.88;;
23242;SDS011;11790;49.578;11.214;2023-07-31T03:30:17;6.22;;;2.10;;
23242;SDS011;11790;49.578;11.214;2023-07-31T03:35:17;8.55;;;2.40;;
23242;SDS011;11790;49.578;11.214;2023-07-31T03:40:18;3.40;;;1.92;;
23242;SDS011;11790;49.578;11.214;2023-07-31T03:45:18;4.25;;;2.03;;
23242;SDS011;11790;49.578;11.214;2023-07-31T03:50:18;6.47;;;2.22;;
23242;SDS011;11790;49.578;11.214;2023-07-31T03:55:18;2.85;;;1.63;;
23242;SDS011;11790;49.578;11.214;2023-07-31T04:00:18;5.03;;;1.90;;
23242;SDS011;11790;49.578;11.214;2023-07-31T04:05:19;5.63;;;2.07;;
23242;SDS011;11790;49.578;11.214;2023-07-31T04:10:19;7.23;;;2.27;;
23242;SDS011;11790;49.578;11.214;2023-07-31T04:15:19;4.15;;;1.77;;
23242;SDS011;11790;49.578;11.214;2023-07-31T04:20:19;3.60;;;2.00;;
23242;SDS011;11790;49.578;11.214;2023-07-31T04:25:19;3.70;;;1.70;;
23242;SDS011;11790;49.578;11.214;2023-07-31T04:30:20;4.78;;;1.73;;
23242;SDS011;11790;49.578;11.214;2023-07-31T04:35:20;4.22;;;1.90;;
23242;SDS011;11790;49.578;11.214;2023-07-31T04:40:20;4.95;;;2.15;;
23242;SDS011;11790;49.578;11.214;2023-07-31T04:45:20;5.68;;;1.83;;
23242;SDS011;11790;49.578;11.214;2023-07-31T04:50:21;4.63;;;1.92;;
23242;SDS011;11790;49.578;11.214;2023-07-31T04:55:21;7.47;;;2.10;;
23242;SDS011;11790;49.578;11.214;2023-07-31T05:00:21;4.07;;;2.00;;
23242;SDS011;11790;49.578;11.214;2023-07-31T05:05:21;9.10;;;2.38;;
23242;SDS011;11790;49.578;11.214;2023-07-31T05:10:21;8.48;;;2.00;;
23242;SDS011;11790;49.578;11.214;2023-07-31T05:15:21;10.07;;;2.05;;
23242;SDS011;11790;49.578;11.214;2023-07-31T05:20:22;4.40;;;1.95;;
23242;SDS011;11790;49.578;11.214;2023-07-31T05:25:22;4.00;;;1.90;;
23242;SDS011;11790;49.578;11.214;2023-07-31T05:30:22;4.93;;;1.90;;
23242;SDS011;11790;49.578;11.214;2023-07-31T05:35:22;4.00;;;1.70;;
23242;SDS011;11790;49.578;11.214;2023-07-31T05:40:22;3.45;;;1.55;;
23242;SDS011;11790;49.578;11.214;2023-07-31T05:45:23;4.15;;;1.65;;
23242;SDS011;11790;49.578;11.214;2023-07-31T05:50:23;5.43;;;1.83;;
23242;SDS011;11790;49.578;11.214;2023-07-31T05:55:24;5.38;;;1.65;;
23242;SDS011;11790;49.578;11.214;2023-07-31T06:00:26;5.50;;;1.83;;
23242;SDS011;11790;49.578;11.214;2023-07-31T06:05:27;4.20;;;1.67;;
23242;SDS011;11790;49.578;11.214;2023-07-31T06:10:29;5.90;;;1.70;;
23242;SDS011;11790;49.578;11.214;2023-07-31T06:15:30;6.93;;;1.75;;
23242;SDS011;11790;49.578;11.214;2023-07-31T06:20:30;5.22;;;2.20;;
23242;SDS011;11790;49.578;11.214;2023-07-31T06:25:30;7.07;;;2.47;;
23242;SDS011;11790;49.578;11.214;2023-07-31T06:30:30;4.07;;;1.77;;
23242;SDS011;11790;49.578;11.214;2023-07-31T06:35:31;8.53;;;1.57;;
23242;SDS011;11790;49.578;11.214;2023-07-31T06:40:31;9.30;;;1.60;;
23242;SDS011;11790;49.578;11.214;2023-07-31T06:45:31;5.88;;;1.90;;
23242;SDS011;11790;49.578;11.214;2023-07-31T06:50:31;2.80;;;1.50;;
23242;SDS011;11790;49.578;11.214;2023-07-31T06:55:32;5.07;;;1.83;;
23242;SDS011;11790;49.578;11.214;2023-07-31T07:00:32;3.67;;;1.70;;
23242;SDS011;11790;49.578;11.214;2023-07-31T07:05:32;4.90;;;1.50;;
23242;SDS011;11790;49.578;11.214;2023-07-31T07:10:32;3.53;;;1.52;;
23242;SDS011;11790;49.578;11.214;2023-07-31T07:15:33;3.88;;;1.92;;
23242;SDS011;11790;49.578;11.214;2023-07-31T07:20:33;4.88;;;1.92;;
23242;SDS011;11790;49.578;11.214;2023-07-31T07:25:35;6.70;;;1.88;;
23242;SDS011;11790;49.578;11.214;2023-07-31T07:30:37;6.53;;;2.67;;
23242;SDS011;11790;49.578;11.214;2023-07-31T07:35:37;7.72;;;1.95;;
23242;SDS011;11790;49.578;11.214;2023-07-31T07:40:40;3.97;;;1.77;;
23242;SDS011;11790;49.578;11.214;2023-07-31T07:45:41;5.88;;;1.95;;
23242;SDS011;11790;49.578;11.214;2023-07-31T07:50:41;7.90;;;2.50;;
23242;SDS011;11790;49.578;11.214;2023-07-31T07:55:41;7.22;;;3.30;;
23242;SDS011;11790;49.578;11.214;2023-07-31T08:00:41;6.90;;;2.00;;
23242;SDS011;11790;49.578;11.214;2023-07-31T08:05:42;4.80;;;2.23;;
23242;SDS011;11790;49.578;11.214;2023-07-31T08:10:42;6.40;;;2.22;;
23242;SDS011;11790;49.578;11.214;2023-07-31T08:15:44;3.88;;;1.70;;
23242;SDS011;11790;49.578;11.214;2023-07-31T08:20:44;7.40;;;2.17;;
23242;SDS011;11790;49.578;11.214;2023-07-31T08:25:44;4.90;;;2.17;;
23242;SDS011;11790;49.578;11.214;2023-07-31T08:30:45;4.95;;;1.92;;
23242;SDS011;11790;49.578;11.214;2023-07-31T08:35:45;5.13;;;2.00;;
23242;SDS011;11790;49.578;11.214;2023-07-31T08:40:54;7.32;;;2.03;;
23242;SDS011;11790;49.578;11.214;2023-07-31T08:45:54;5.93;;;1.90;;
23242;SDS011;11790;49.578;11.214;2023-07-31T08:50:55;3.63;;;1.50;;
23242;SDS011;11790;49.578;11.214;2023-07-31T08:55:55;4.68;;;1.90;;
23242;SDS011;11790;49.578;11.214;2023-07-31T09:00:56;7.38;;;1.88;;
23242;SDS011;11790;49.578;11.214;2023-07-31T09:05:56;3.67;;;1.80;;
23242;SDS011;11790;49.578;11.214;2023-07-31T09:11:02;4.93;;;1.77;;
23242;SDS011;11790;49.578;11.214;2023-07-31T09:16:03;4.28;;;2.03;;
23242;SDS011;11790;49.578;11.214;2023-07-31T09:21:04;6.07;;;2.10;;
23242;SDS011;11790;49.578;11.214;2023-07-31T09:26:04;3.67;;;1.80;;
23242;SDS011;11790;49.578;11.214;2023-07-31T09:31:04;5.10;;;1.75;;
23242;SDS011;11790;49.578;11.214;2023-07-31T09:36:05;3.35;;;1.48;;
23242;SDS011;11790;49.578;11.214;2023-07-31T09:41:05;5.57;;;2.20;;
23242;SDS011;11790;49.578;11.214;2023-07-31T09:46:05;5.40;;;1.83;;
23242;SDS011;11790;49.578;11.214;2023-07-31T09:51:13;6.35;;;2.30;;
23242;SDS011;11790;49.578;11.214;2023-07-31T09:56:13;4.95;;;1.80;;
23242;SDS011;11790;49.578;11.214;2023-07-31T10:01:13;5.85;;;2.00;;
23242;SDS011;11790;49.578;11.214;2023-07-31T10:06:14;6.90;;;1.90;;
23242;SDS011;11790;49.578;11.214;2023-07-31T10:11:15;4.07;;;1.60;;
23242;SDS011;11790;49.578;11.214;2023-07-31T10:16:17;4.32;;;2.03;;
23242;SDS011;11790;49.578;11.214;2023-07-31T10:21:17;5.35;;;2.10;;
23242;SDS011;11790;49.578;11.214;2023-07-31T10:26:19;5.00;;;2.10;;
23242;SDS011;11790;49.578;11.214;2023-07-31T10:31:19;5.78;;;1.90;;
23242;SDS011;11790;49.578;11.214;2023-07-31T10:36:20;3.15;;;1.77;;
23242;SDS011;11790;49.578;11.214;2023-07-31T10:41:27;4.05;;;2.03;;
23242;SDS011;11790;49.578;11.214;2023-07-31T10:46:28;2.88;;;1.65;;
23242;SDS011;11790;49.578;11.214;2023-07-31T10:51:34;3.83;;;1.90;;
23242;SDS011;11790;49.578;11.214;2023-07-31T10:56:37;3.20;;;1.80;;
23242;SDS011;11790;49.578;11.214;2023-07-31T11:06:56;4.55;;;1.73;;
23242;SDS011;11790;49.578;11.214;2023-07-31T11:11:58;3.40;;;1.98;;
23242;SDS011;11790;49.578;11.214;2023-07-31T11:16:58;4.10;;;1.92;;
23242;SDS011;11790;49.578;11.214;2023-07-31T11:21:58;6.25;;;2.05;;
23242;SDS011;11790;49.578;11.214;2023-07-31T11:26:59;3.20;;;1.67;;
23242;SDS011;11790;49.578;11.214;2023-07-31T11:32:00;6.82;;;1.90;;
23242;SDS011;11790;49.578;11.214;2023-07-31T11:37:00;5.28;;;1.70;;
23242;SDS011;11790;49.578;11.214;2023-07-31T11:42:01;3.22;;;1.70;;
23242;SDS011;11790;49.578;11.214;2023-07-31T11:47:01;4.55;;;1.90;;
23242;SDS011;11790;49.578;11.214;2023-07-31T11:52:02;5.15;;;2.42;;
23242;SDS011;11790;49.578;11.214;2023-07-31T11:57:02;5.15;;;2.05;;
23242;SDS011;11790;49.578;11.214;2023-07-31T12:02:03;6.55;;;2.28;;
23242;SDS011;11790;49.578;11.214;2023-07-31T12:07:03;6.35;;;2.40;;
23242;SDS011;11790;49.578;11.214;2023-07-31T12:12:08;5.63;;;2.40;;
23242;SDS011;11790;49.578;11.214;2023-07-31T12:17:08;5.45;;;2.30;;
23242;SDS011;11790;49.578;11.214;2023-07-31T12:22:12;4.68;;;2.10;;
23242;SDS011;11790;49.578;11.214;2023-07-31T12:27:12;4.88;;;2.33;;
23242;SDS011;11790;49.578;11.214;2023-07-31T12:32:19;5.70;;;2.13;;
23242;SDS011;11790;49.578;11.214;2023-07-31T12:37:23;5.03;;;2.00;;
23242;SDS011;11790;49.578;11.214;2023-07-31T12:42:23;3.78;;;2.00;;
23242;SDS011;11790;49.578;11.214;2023-07-31T12:47:23;4.38;;;2.00;;
23242;SDS011;11790;49.578;11.214;2023-07-31T12:52:23;5.78;;;2.28;;
23242;SDS011;11790;49.578;11.214;2023-07-31T12:57:24;3.47;;;2.00;;
23242;SDS011;11790;49.578;11.214;2023-07-31T13:02:24;4.03;;;2.20;;
23242;SDS011;11790;49.578;11.214;2023-07-31T13:07:24;3.95;;;1.65;;
23242;SDS011;11790;49.578;11.214;2023-07-31T13:12:25;4.88;;;1.95;;
23242;SDS011;11790;49.578;11.214;2023-07-31T13:17:25;3.45;;;2.10;;
23242;SDS011;11790;49.578;11.214;2023-07-31T13:22:26;5.15;;;2.13;;
23242;SDS011;11790;49.578;11.214;2023-07-31T13:27:26;4.07;;;2.10;;
23242;SDS011;11790;49.578;11.214;2023-07-31T13:32:27;4.30;;;2.33;;
23242;SDS011;11790;49.578;11.214;2023-07-31T13:37:27;5.32;;;2.20;;
23242;SDS011;11790;49.578;11.214;2023-07-31T13:42:27;5.63;;;2.40;;
23242;SDS011;11790;49.578;11.214;2023-07-31T13:47:28;6.65;;;2.30;;
23242;SDS011;11790;49.578;11.214;2023-07-31T13:52:28;5.05;;;2.13;;
23242;SDS011;11790;49.578;11.214;2023-07-31T13:57:29;4.38;;;2.30;;
23242;SDS011;11790;49.578;11.214;2023-07-31T14:02:29;10.23;;;2.43;;
23242;SDS011;11790;49.578;11.214;2023-07-31T14:07:30;7.50;;;2.58;;
23242;SDS011;11790;49.578;11.214;2023-07-31T14:12:31;6.35;;;2.70;;
23242;SDS011;11790;49.578;11.214;2023-07-31T14:17:31;7.75;;;2.75;;
23242;SDS011;11790;49.578;11.214;2023-07-31T14:22:32;5.78;;;2.28;;
23242;SDS011;11790;49.578;11.214;2023-07-31T14:27:33;6.05;;;2.28;;
23242;SDS011;11790;49.578;11.214;2023-07-31T14:32:34;5.43;;;2.75;;
23242;SDS011;11790;49.578;11.214;2023-07-31T14:37:40;4.25;;;2.42;;
23242;SDS011;11790;49.578;11.214;2023-07-31T14:42:41;3.85;;;2.17;;
23242;SDS011;11790;49.578;11.214;2023-07-31T14:47:41;4.37;;;2.00;;
23242;SDS011;11790;49.578;11.214;2023-07-31T14:52:42;4.53;;;2.13;;
23242;SDS011;11790;49.578;11.214;2023-07-31T14:57:42;3.67;;;2.20;;
23242;SDS011;11790;49.578;11.214;2023-07-31T15:02:42;4.18;;;2.40;;
23242;SDS011;11790;49.578;11.214;2023-07-31T15:07:42;6.80;;;2.45;;
23242;SDS011;11790;49.578;11.214;2023-07-31T15:12:42;5.68;;;2.60;;
23242;SDS011;11790;49.578;11.214;2023-07-31T15:17:43;5.43;;;2.40;;
23242;SDS011;11790;49.578;11.214;2023-07-31T15:22:43;4.35;;;1.98;;
23242;SDS011;11790;49.578;11.214;2023-07-31T15:27:43;3.80;;;2.15;;
23242;SDS011;11790;49.578;11.214;2023-07-31T15:32:43;6.95;;;2.40;;
23242;SDS011;11790;49.578;11.214;2023-07-31T15:37:48;5.03;;;2.55;;
23242;SDS011;11790;49.578;11.214;2023-07-31T15:42:48;5.82;;;2.30;;
23242;SDS011;11790;49.578;11.214;2023-07-31T15:47:48;7.43;;;3.15;;
23242;SDS011;11790;49.578;11.214;2023-07-31T15:52:49;7.20;;;2.40;;
23242;SDS011;11790;49.578;11.214;2023-07-31T15:57:49;5.57;;;2.15;;
23242;SDS011;11790;49.578;11.214;2023-07-31T16:02:49;4.72;;;2.20;;
23242;SDS011;11790;49.578;11.214;2023-07-31T16:07:49;4.93;;;2.08;;
23242;SDS011;11790;49.578;11.214;2023-07-31T16:12:50;4.82;;;2.30;;
23242;SDS011;11790;49.578;11.214;2023-07-31T16:17:50;7.25;;;2.50;;
23242;SDS011;11790;49.578;11.214;2023-07-31T16:22:50;5.20;;;2.37;;
23242;SDS011;11790;49.578;11.214;2023-07-31T16:27:50;5.07;;;2.55;;
23242;SDS011;11790;49.578;11.214;2023-07-31T16:32:50;5.38;;;2.42;;
23242;SDS011;11790;49.578;11.214;2023-07-31T16:37:53;4.05;;;1.90;;
23242;SDS011;11790;49.578;11.214;2023-07-31T16:42:54;5.07;;;2.42;;
23242;SDS011;11790;49.578;11.214;2023-07-31T16:47:54;7.15;;;2.30;;
23242;SDS011;11790;49.578;11.214;2023-07-31T16:52:54;5.82;;;2.47;;
23242;SDS011;11790;49.578;11.214;2023-07-31T16:57:55;5.80;;;2.53;;
23242;SDS011;11790;49.578;11.214;2023-07-31T17:02:56;8.80;;;2.42;;
23242;SDS011;11790;49.578;11.214;2023-07-31T17:07:56;3.50;;;2.10;;
23242;SDS011;11790;49.578;11.214;2023-07-31T17:12:56;4.97;;;2.50;;
23242;SDS011;11790;49.578;11.214;2023-07-31T17:17:57;3.57;;;2.20;;
23242;SDS011;11790;49.578;11.214;2023-07-31T17:22:57;6.20;;;2.65;;
23242;SDS011;11790;49.578;11.214;2023-07-31T17:27:57;6.05;;;2.70;;
23242;SDS011;11790;49.578;11.214;2023-07-31T17:32:57;4.55;;;2.45;;
23242;SDS011;11790;49.578;11.214;2023-07-31T17:37:58;5.45;;;2.55;;
23242;SDS011;11790;49.578;11.214;2023-07-31T17:42:58;5.93;;;2.65;;
23242;SDS011;11790;49.578;11.214;2023-07-31T17:47:58;5.13;;;2.40;;
23242;SDS011;11790;49.578;11.214;2023-07-31T17:52:58;12.32;;;2.80;;
23242;SDS011;11790;49.578;11.214;2023-07-31T17:57:59;6.60;;;2.47;;
23242;SDS011;11790;49.578;11.214;2023-07-31T18:02:59;4.07;;;2.53;;
23242;SDS011;11790;49.578;11.214;2023-07-31T18:07:59;5.57;;;2.47;;
23242;SDS011;11790;49.578;11.214;2023-07-31T18:12:59;6.07;;;2.90;;
23242;SDS011;11790;49.578;11.214;2023-07-31T18:17:59;4.18;;;2.60;;
23242;SDS011;11790;49.578;11.214;2023-07-31T18:23:00;7.65;;;2.70;;
23242;SDS011;11790;49.578;11.214;2023-07-31T18:28:00;5.65;;;2.33;;
23242;SDS011;11790;49.578;11.214;2023-07-31T18:33:00;4.50;;;2.40;;
23242;SDS011;11790;49.578;11.214;2023-07-31T18:38:00;3.72;;;2.50;;
23242;SDS011;11790;49.578;11.214;2023-07-31T18:43:00;3.92;;;2.25;;
23242;SDS011;11790;49.578;11.214;2023-07-31T18:48:03;12.02;;;2.78;;
23242;SDS011;11790;49.578;11.214;2023-07-31T18:53:03;5.93;;;2.50;;
23242;SDS011;11790;49.578;11.214;2023-07-31T18:58:03;4.30;;;2.40;;
23242;SDS011;11790;49.578;11.214;2023-07-31T19:03:04;5.97;;;2.25;;
23242;SDS011;11790;49.578;11.214;2023-07-31T19:08:04;6.75;;;2.55;;
23242;SDS011;11790;49.578;11.214;2023-07-31T19:13:05;4.95;;;2.80;;
23242;SDS011;11790;49.578;11.214;2023-07-31T19:18:05;7.00;;;2.80;;
23242;SDS011;11790;49.578;11.214;2023-07-31T19:23:05;4.38;;;2.38;;
23242;SDS011;11790;49.578;11.214;2023-07-31T19:28:06;7.60;;;2.72;;
23242;SDS011;11790;49.578;11.214;2023-07-31T19:33:06;6.75;;;3.00;;
23242;SDS011;11790;49.578;11.214;2023-07-31T19:38:06;7.28;;;3.03;;
23242;SDS011;11790;49.578;11.214;2023-07-31T19:43:06;4.88;;;2.63;;
23242;SDS011;11790;49.578;11.214;2023-07-31T19:48:07;3.80;;;2.60;;
23242;SDS011;11790;49.578;11.214;2023-07-31T19:53:07;5.30;;;2.70;;
23242;SDS011;11790;49.578;11.214;2023-07-31T19:58:07;7.40;;;2.63;;
23242;SDS011;11790;49.578;11.214;2023-07-31T20:03:08;4.28;;;2.55;;
23242;SDS011;11790;49.578;11.214;2023-07-31T20:08:08;4.40;;;2.33;;
23242;SDS011;11790;49.578;11.214;2023-07-31T20:13:08;6.25;;;2.90;;
23242;SDS011;11790;49.578;11.214;2023-07-31T20:18:08;7.45;;;2.95;;
23242;SDS011;11790;49.578;11.214;2023-07-31T20:23:09;5.45;;;2.75;;
23242;SDS011;11790;49.578;11.214;2023-07-31T20:28:09;3.85;;;2.65;;
23242;SDS011;11790;49.578;11.214;2023-07-31T20:33:09;8.23;;;2.63;;
23242;SDS011;11790;49.578;11.214;2023-07-31T20:38:10;5.95;;;2.80;;
23242;SDS011;11790;49.578;11.214;2023-07-31T20:43:10;5.85;;;2.80;;
23242;SDS011;11790;49.578;11.214;2023-07-31T20:48:15;7.72;;;3.17;;
23242;SDS011;11790;49.578;11.214;2023-07-31T20:53:15;6.03;;;3.05;;
23242;SDS011;11790;49.578;11.214;2023-07-31T20:58:17;7.00;;;3.65;;
23242;SDS011;11790;49.578;11.214;2023-07-31T21:03:17;6.82;;;3.35;;
23242;SDS011;11790;49.578;11.214;2023-07-31T21:08:18;7.20;;;3.00;;
23242;SDS011;11790;49.578;11.214;2023-07-31T21:13:18;6.90;;;3.35;;
23242;SDS011;11790;49.578;11.214;2023-07-31T21:18:19;5.47;;;3.10;;
23242;SDS011;11790;49.578;11.214;2023-07-31T21:23:19;7.65;;;3.33;;
23242;SDS011;11790;49.578;11.214;2023-07-31T21:28:20;6.70;;;3.37;;
23242;SDS011;11790;49.578;11.214;2023-07-31T21:33:20;7.90;;;3.72;;
23242;SDS011;11790;49.578;11.214;2023-07-31T21:38:20;7.28;;;2.85;;
23242;SDS011;11790;49.578;11.214;2023-07-31T21:43:20;8.05;;;3.40;;
23242;SDS011;11790;49.578;11.214;2023-07-31T21:48:20;6.68;;;3.30;;
23242;SDS011;11790;49.578;11.214;2023-07-31T21:53:21;5.70;;;3.25;;
23242;SDS011;11790;49.578;11.214;2023-07-31T21:58:21;6.45;;;3.47;;
23242;SDS011;11790;49.578;11.214;2023-07-31T22:03:21;6.47;;;3.70;;
23242;SDS011;11790;49.578;11.214;2023-07-31T22:08:21;6.85;;;3.55;;
23242;SDS011;11790;49.578;11.214;2023-07-31T22:13:21;5.10;;;3.28;;
23242;SDS011;11790;49.578;11.214;2023-07-31T22:18:21;6.68;;;3.70;;
23242;SDS011;11790;49.578;11.214;2023-07-31T22:23:22;6.65;;;3.42;;
23242;SDS011;11790;49.578;11.214;2023-07-31T22:28:22;8.35;;;4.20;;
23242;SDS011;11790;49.578;11.214;2023-07-31T22:33:22;6.70;;;3.67;;
23242;SDS011;11790;49.578;11.214;2023-07-31T22:38:22;4.53;;;3.17;;
23242;SDS011;11790;49.578;11.214;2023-07-31T22:43:22;5.20;;;3.70;;
23242;SDS011;11790;49.578;11.214;2023-07-31T22:48:23;6.05;;;3.58;;
23242;SDS011;11790;49.578;11.214;2023-07-31T22:53:23;7.28;;;3.70;;
23242;SDS011;11790;49.578;11.214;2023-07-31T22:58:23;9.10;;;4.20;;
23242;SDS011;11790;49.578;11.214;2023-07-31T23:03:23;13.40;;;4.15;;
23242;SDS011;11790;49.578;11.214;2023-07-31T23:08:23;8.10;;;3.85;;
23242;SDS011;11790;49.578;11.214;2023-07-31T23:13:23;7.28;;;3.80;;
23242;SDS011;11790;49.578;11.214;2023-07-31T23:18:24;8.23;;;3.58;;
23242;SDS011;11790;49.578;11.214;2023-07-31T23:23:24;5.60;;;3.55;;
23242;SDS011;11790;49.578;11.214;2023-07-31T23:28:25;7.95;;;3.90;;
23242;SDS011;11790;49.578;11.214;2023-07-31T23:33:25;5.22;;;3.72;;
23242;SDS011;11790;49.578;11.214;2023-07-31T23:38:25;7.30;;;4.28;;
23242;SDS011;11790;49.578;11.214;2023-07-31T23:43:25;7.17;;;4.17;;
23242;SDS011;11790;49.578;11.214;2023-07-31T23:48:25;7.82;;;4.38;;
23242;SDS011;11790;49.578;11.214;2023-07-31T23:53:26;10.10;;;5.03;;
23242;SDS011;11790;49.578;11.214;2023-07-31T23:58:26;6.82;;;4.00;;
